sensor_id;sensor_type;location;lat;lon;timestamp;P1;durP1;ratioP1;P2;durP2;ratioP2
33836;SDS011;20140;49.356;8.812;2023-12-20T00:00:56;5.43;;;4.82;;
33836;SDS011;20140;49.356;8.812;2023-12-20T00:03:21;6.97;;;5.20;;
33836;SDS011;20140;49.356;8.812;2023-12-20T00:05:47;7.20;;;5.13;;
33836;SDS011;20140;49.356;8.812;2023-12-20T00:08:13;7.70;;;4.83;;
33836;SDS011;20140;49.356;8.812;2023-12-20T00:10:38;7.53;;;5.43;;
33836;SDS011;20140;49.356;8.812;2023-12-20T00:13:04;5.97;;;4.53;;
33836;SDS011;20140;49.356;8.812;2023-12-20T00:15:29;7.25;;;5.35;;
33836;SDS011;20140;49.356;8.812;2023-12-20T00:17:55;4.82;;;4.30;;
33836;SDS011;20140;49.356;8.812;2023-12-20T00:20:20;6.50;;;4.85;;
33836;SDS011;20140;49.356;8.812;2023-12-20T00:22:46;7.93;;;5.77;;
33836;SDS011;20140;49.356;8.812;2023-12-20T00:25:11;7.43;;;5.87;;
33836;SDS011;20140;49.356;8.812;2023-12-20T00:27:37;8.37;;;6.20;;
33836;SDS011;20140;49.356;8.812;2023-12-20T00:30:03;7.63;;;5.27;;
33836;SDS011;20140;49.356;8.812;2023-12-20T00:32:28;6.50;;;5.35;;
33836;SDS011;20140;49.356;8.812;2023-12-20T00:34:54;6.87;;;4.67;;
33836;SDS011;20140;49.356;8.812;2023-12-20T00:37:19;6.93;;;5.57;;
33836;SDS011;20140;49.356;8.812;2023-12-20T00:39:45;7.28;;;5.22;;
33836;SDS011;20140;49.356;8.812;2023-12-20T00:42:10;5.40;;;4.43;;
33836;SDS011;20140;49.356;8.812;2023-12-20T00:44:36;8.27;;;5.07;;
33836;SDS011;20140;49.356;8.812;2023-12-20T00:47:01;8.00;;;5.33;;
33836;SDS011;20140;49.356;8.812;2023-12-20T00:49:27;5.90;;;5.20;;
33836;SDS011;20140;49.356;8.812;2023-12-20T00:51:53;5.37;;;4.63;;
33836;SDS011;20140;49.356;8.812;2023-12-20T00:54:19;8.33;;;4.60;;
33836;SDS011;20140;49.356;8.812;2023-12-20T00:56:44;7.70;;;5.73;;
33836;SDS011;20140;49.356;8.812;2023-12-20T00:59:10;7.07;;;5.30;;
33836;SDS011;20140;49.356;8.812;2023-12-20T01:01:35;7.57;;;5.85;;
33836;SDS011;20140;49.356;8.812;2023-12-20T01:04:01;7.53;;;6.03;;
33836;SDS011;20140;49.356;8.812;2023-12-20T01:06:26;7.55;;;5.70;;
33836;SDS011;20140;49.356;8.812;2023-12-20T01:08:52;7.37;;;5.70;;
33836;SDS011;20140;49.356;8.812;2023-12-20T01:11:17;5.43;;;4.67;;
33836;SDS011;20140;49.356;8.812;2023-12-20T01:13:43;4.50;;;3.87;;
33836;SDS011;20140;49.356;8.812;2023-12-20T01:16:10;7.07;;;5.10;;
33836;SDS011;20140;49.356;8.812;2023-12-20T01:18:36;5.25;;;3.75;;
33836;SDS011;20140;49.356;8.812;2023-12-20T01:21:05;8.50;;;5.55;;
33836;SDS011;20140;49.356;8.812;2023-12-20T01:23:30;6.87;;;4.30;;
33836;SDS011;20140;49.356;8.812;2023-12-20T01:25:57;6.03;;;4.50;;
33836;SDS011;20140;49.356;8.812;2023-12-20T01:28:24;6.28;;;4.78;;
33836;SDS011;20140;49.356;8.812;2023-12-20T01:30:50;4.65;;;3.47;;
33836;SDS011;20140;49.356;8.812;2023-12-20T01:33:16;5.97;;;4.53;;
33836;SDS011;20140;49.356;8.812;2023-12-20T01:35:41;6.03;;;4.43;;
33836;SDS011;20140;49.356;8.812;2023-12-20T01:38:07;5.30;;;4.20;;
33836;SDS011;20140;49.356;8.812;2023-12-20T01:40:34;5.17;;;3.93;;
33836;SDS011;20140;49.356;8.812;2023-12-20T01:43:00;4.63;;;3.73;;
33836;SDS011;20140;49.356;8.812;2023-12-20T01:45:26;4.67;;;3.63;;
33836;SDS011;20140;49.356;8.812;2023-12-20T01:47:52;5.20;;;3.40;;
33836;SDS011;20140;49.356;8.812;2023-12-20T01:50:18;5.25;;;3.75;;
33836;SDS011;20140;49.356;8.812;2023-12-20T01:52:43;6.95;;;3.53;;
33836;SDS011;20140;49.356;8.812;2023-12-20T01:55:10;6.47;;;3.70;;
33836;SDS011;20140;49.356;8.812;2023-12-20T01:57:39;4.20;;;3.42;;
33836;SDS011;20140;49.356;8.812;2023-12-20T02:00:06;4.00;;;3.22;;
33836;SDS011;20140;49.356;8.812;2023-12-20T02:02:34;4.18;;;3.03;;
33836;SDS011;20140;49.356;8.812;2023-12-20T02:05:04;3.67;;;3.13;;
33836;SDS011;20140;49.356;8.812;2023-12-20T02:07:33;4.50;;;3.97;;
33836;SDS011;20140;49.356;8.812;2023-12-20T02:10:00;5.05;;;3.30;;
33836;SDS011;20140;49.356;8.812;2023-12-20T02:12:29;5.50;;;3.80;;
33836;SDS011;20140;49.356;8.812;2023-12-20T02:14:55;3.63;;;2.90;;
33836;SDS011;20140;49.356;8.812;2023-12-20T02:17:20;5.77;;;4.00;;
33836;SDS011;20140;49.356;8.812;2023-12-20T02:19:47;4.07;;;2.95;;
33836;SDS011;20140;49.356;8.812;2023-12-20T02:22:12;4.30;;;3.70;;
33836;SDS011;20140;49.356;8.812;2023-12-20T02:24:38;4.20;;;3.27;;
33836;SDS011;20140;49.356;8.812;2023-12-20T02:27:05;3.63;;;2.85;;
33836;SDS011;20140;49.356;8.812;2023-12-20T02:29:32;3.78;;;2.25;;
33836;SDS011;20140;49.356;8.812;2023-12-20T02:31:58;4.05;;;3.13;;
33836;SDS011;20140;49.356;8.812;2023-12-20T02:34:23;3.97;;;3.33;;
33836;SDS011;20140;49.356;8.812;2023-12-20T02:36:49;4.40;;;3.50;;
33836;SDS011;20140;49.356;8.812;2023-12-20T02:39:15;3.83;;;3.37;;
33836;SDS011;20140;49.356;8.812;2023-12-20T02:41:41;4.57;;;3.88;;
33836;SDS011;20140;49.356;8.812;2023-12-20T02:44:06;3.65;;;2.42;;
33836;SDS011;20140;49.356;8.812;2023-12-20T02:46:32;5.97;;;4.35;;
33836;SDS011;20140;49.356;8.812;2023-12-20T02:48:57;5.80;;;4.60;;
33836;SDS011;20140;49.356;8.812;2023-12-20T02:51:23;4.57;;;3.43;;
33836;SDS011;20140;49.356;8.812;2023-12-20T02:53:48;3.97;;;3.57;;
33836;SDS011;20140;49.356;8.812;2023-12-20T02:56:14;4.93;;;2.97;;
33836;SDS011;20140;49.356;8.812;2023-12-20T02:58:39;3.80;;;3.40;;
33836;SDS011;20140;49.356;8.812;2023-12-20T03:01:05;4.63;;;3.08;;
33836;SDS011;20140;49.356;8.812;2023-12-20T03:03:31;2.78;;;2.17;;
33836;SDS011;20140;49.356;8.812;2023-12-20T03:05:57;3.20;;;2.90;;
33836;SDS011;20140;49.356;8.812;2023-12-20T03:08:23;4.35;;;3.33;;
33836;SDS011;20140;49.356;8.812;2023-12-20T03:10:49;3.13;;;2.50;;
33836;SDS011;20140;49.356;8.812;2023-12-20T03:13:15;4.53;;;3.47;;
33836;SDS011;20140;49.356;8.812;2023-12-20T03:15:40;3.20;;;2.83;;
33836;SDS011;20140;49.356;8.812;2023-12-20T03:18:06;3.93;;;2.97;;
33836;SDS011;20140;49.356;8.812;2023-12-20T03:20:31;4.10;;;3.53;;
33836;SDS011;20140;49.356;8.812;2023-12-20T03:22:59;3.65;;;2.85;;
33836;SDS011;20140;49.356;8.812;2023-12-20T03:25:25;4.43;;;3.13;;
33836;SDS011;20140;49.356;8.812;2023-12-20T03:27:50;3.90;;;3.30;;
33836;SDS011;20140;49.356;8.812;2023-12-20T03:30:16;3.40;;;2.85;;
33836;SDS011;20140;49.356;8.812;2023-12-20T03:32:43;4.53;;;2.93;;
33836;SDS011;20140;49.356;8.812;2023-12-20T03:35:09;3.33;;;2.70;;
33836;SDS011;20140;49.356;8.812;2023-12-20T03:37:35;4.80;;;3.47;;
33836;SDS011;20140;49.356;8.812;2023-12-20T03:40:01;3.00;;;2.60;;
33836;SDS011;20140;49.356;8.812;2023-12-20T03:42:26;3.17;;;2.72;;
33836;SDS011;20140;49.356;8.812;2023-12-20T03:44:52;2.95;;;2.38;;
33836;SDS011;20140;49.356;8.812;2023-12-20T03:47:17;3.80;;;3.27;;
33836;SDS011;20140;49.356;8.812;2023-12-20T03:49:43;3.73;;;3.03;;
33836;SDS011;20140;49.356;8.812;2023-12-20T03:52:08;4.07;;;3.23;;
33836;SDS011;20140;49.356;8.812;2023-12-20T03:54:37;4.47;;;3.00;;
33836;SDS011;20140;49.356;8.812;2023-12-20T03:57:03;3.97;;;3.13;;
33836;SDS011;20140;49.356;8.812;2023-12-20T03:59:28;3.05;;;2.53;;
33836;SDS011;20140;49.356;8.812;2023-12-20T04:01:54;3.00;;;2.67;;
33836;SDS011;20140;49.356;8.812;2023-12-20T04:04:20;3.00;;;2.70;;
33836;SDS011;20140;49.356;8.812;2023-12-20T04:06:45;4.03;;;3.10;;
33836;SDS011;20140;49.356;8.812;2023-12-20T04:09:11;4.63;;;2.92;;
33836;SDS011;20140;49.356;8.812;2023-12-20T04:11:37;3.75;;;3.38;;
33836;SDS011;20140;49.356;8.812;2023-12-20T04:14:02;3.30;;;3.00;;
33836;SDS011;20140;49.356;8.812;2023-12-20T04:16:29;4.05;;;2.65;;
33836;SDS011;20140;49.356;8.812;2023-12-20T04:18:55;3.83;;;2.92;;
33836;SDS011;20140;49.356;8.812;2023-12-20T04:21:21;3.90;;;2.83;;
33836;SDS011;20140;49.356;8.812;2023-12-20T04:23:46;4.80;;;3.53;;
33836;SDS011;20140;49.356;8.812;2023-12-20T04:26:12;3.40;;;2.70;;
33836;SDS011;20140;49.356;8.812;2023-12-20T04:28:37;4.00;;;2.90;;
33836;SDS011;20140;49.356;8.812;2023-12-20T04:31:03;3.13;;;2.83;;
33836;SDS011;20140;49.356;8.812;2023-12-20T04:33:28;3.35;;;2.63;;
33836;SDS011;20140;49.356;8.812;2023-12-20T04:35:54;3.08;;;2.78;;
33836;SDS011;20140;49.356;8.812;2023-12-20T04:38:20;3.50;;;2.50;;
33836;SDS011;20140;49.356;8.812;2023-12-20T04:40:45;5.10;;;3.15;;
33836;SDS011;20140;49.356;8.812;2023-12-20T04:43:11;4.20;;;3.50;;
33836;SDS011;20140;49.356;8.812;2023-12-20T04:45:36;3.13;;;2.70;;
33836;SDS011;20140;49.356;8.812;2023-12-20T04:48:02;4.53;;;3.03;;
33836;SDS011;20140;49.356;8.812;2023-12-20T04:50:28;2.60;;;2.40;;
33836;SDS011;20140;49.356;8.812;2023-12-20T04:52:53;3.77;;;2.73;;
33836;SDS011;20140;49.356;8.812;2023-12-20T04:55:19;3.27;;;2.70;;
33836;SDS011;20140;49.356;8.812;2023-12-20T04:57:45;2.93;;;2.57;;
33836;SDS011;20140;49.356;8.812;2023-12-20T05:00:10;3.27;;;2.90;;
33836;SDS011;20140;49.356;8.812;2023-12-20T05:02:37;2.88;;;2.67;;
33836;SDS011;20140;49.356;8.812;2023-12-20T05:05:02;2.55;;;2.33;;
33836;SDS011;20140;49.356;8.812;2023-12-20T05:07:28;2.67;;;2.47;;
33836;SDS011;20140;49.356;8.812;2023-12-20T05:09:54;3.92;;;2.70;;
33836;SDS011;20140;49.356;8.812;2023-12-20T05:12:19;2.42;;;2.20;;
33836;SDS011;20140;49.356;8.812;2023-12-20T05:14:45;3.22;;;2.70;;
33836;SDS011;20140;49.356;8.812;2023-12-20T05:17:11;3.10;;;2.80;;
33836;SDS011;20140;49.356;8.812;2023-12-20T05:19:36;3.83;;;3.27;;
33836;SDS011;20140;49.356;8.812;2023-12-20T05:22:02;4.20;;;3.03;;
33836;SDS011;20140;49.356;8.812;2023-12-20T05:24:28;3.15;;;2.63;;
33836;SDS011;20140;49.356;8.812;2023-12-20T05:26:53;3.08;;;2.78;;
33836;SDS011;20140;49.356;8.812;2023-12-20T05:29:19;3.83;;;2.67;;
33836;SDS011;20140;49.356;8.812;2023-12-20T05:31:45;4.68;;;2.83;;
33836;SDS011;20140;49.356;8.812;2023-12-20T05:34:10;3.08;;;2.78;;
33836;SDS011;20140;49.356;8.812;2023-12-20T05:36:36;3.15;;;2.78;;
33836;SDS011;20140;49.356;8.812;2023-12-20T05:39:02;3.47;;;2.95;;
33836;SDS011;20140;49.356;8.812;2023-12-20T05:41:30;2.95;;;2.67;;
33836;SDS011;20140;49.356;8.812;2023-12-20T05:43:56;3.30;;;2.67;;
33836;SDS011;20140;49.356;8.812;2023-12-20T05:46:24;2.30;;;2.10;;
33836;SDS011;20140;49.356;8.812;2023-12-20T05:48:50;4.03;;;2.40;;
33836;SDS011;20140;49.356;8.812;2023-12-20T05:51:16;5.45;;;2.90;;
33836;SDS011;20140;49.356;8.812;2023-12-20T05:53:42;2.45;;;2.25;;
33836;SDS011;20140;49.356;8.812;2023-12-20T05:56:09;4.05;;;2.30;;
33836;SDS011;20140;49.356;8.812;2023-12-20T05:58:34;2.35;;;2.15;;
33836;SDS011;20140;49.356;8.812;2023-12-20T06:01:00;2.80;;;2.20;;
33836;SDS011;20140;49.356;8.812;2023-12-20T06:03:25;2.53;;;2.08;;
33836;SDS011;20140;49.356;8.812;2023-12-20T06:05:51;3.37;;;2.90;;
33836;SDS011;20140;49.356;8.812;2023-12-20T06:08:16;2.67;;;2.07;;
33836;SDS011;20140;49.356;8.812;2023-12-20T06:10:42;2.77;;;2.43;;
33836;SDS011;20140;49.356;8.812;2023-12-20T06:13:07;2.60;;;2.40;;
33836;SDS011;20140;49.356;8.812;2023-12-20T06:15:33;2.78;;;2.40;;
33836;SDS011;20140;49.356;8.812;2023-12-20T06:17:58;3.08;;;2.58;;
33836;SDS011;20140;49.356;8.812;2023-12-20T06:20:24;3.07;;;2.60;;
33836;SDS011;20140;49.356;8.812;2023-12-20T06:22:50;2.47;;;2.27;;
33836;SDS011;20140;49.356;8.812;2023-12-20T06:25:15;2.73;;;2.37;;
33836;SDS011;20140;49.356;8.812;2023-12-20T06:27:41;2.50;;;2.30;;
33836;SDS011;20140;49.356;8.812;2023-12-20T06:30:07;2.30;;;2.10;;
33836;SDS011;20140;49.356;8.812;2023-12-20T06:32:34;2.75;;;2.47;;
33836;SDS011;20140;49.356;8.812;2023-12-20T06:35:00;3.10;;;2.80;;
33836;SDS011;20140;49.356;8.812;2023-12-20T06:37:25;5.15;;;3.17;;
33836;SDS011;20140;49.356;8.812;2023-12-20T06:39:51;3.92;;;3.22;;
33836;SDS011;20140;49.356;8.812;2023-12-20T06:42:16;3.28;;;2.97;;
33836;SDS011;20140;49.356;8.812;2023-12-20T06:44:42;3.75;;;3.22;;
33836;SDS011;20140;49.356;8.812;2023-12-20T06:47:07;3.50;;;3.07;;
33836;SDS011;20140;49.356;8.812;2023-12-20T06:49:33;5.03;;;3.50;;
33836;SDS011;20140;49.356;8.812;2023-12-20T06:51:58;5.03;;;3.43;;
33836;SDS011;20140;49.356;8.812;2023-12-20T06:54:24;3.70;;;3.28;;
33836;SDS011;20140;49.356;8.812;2023-12-20T06:56:50;4.68;;;3.90;;
33836;SDS011;20140;49.356;8.812;2023-12-20T06:59:15;5.13;;;3.60;;
33836;SDS011;20140;49.356;8.812;2023-12-20T07:01:41;5.40;;;3.60;;
33836;SDS011;20140;49.356;8.812;2023-12-20T07:04:06;4.37;;;3.77;;
33836;SDS011;20140;49.356;8.812;2023-12-20T07:06:32;3.83;;;3.43;;
33836;SDS011;20140;49.356;8.812;2023-12-20T07:08:57;4.53;;;3.53;;
33836;SDS011;20140;49.356;8.812;2023-12-20T07:11:23;3.25;;;2.95;;
33836;SDS011;20140;49.356;8.812;2023-12-20T07:13:49;4.97;;;3.95;;
33836;SDS011;20140;49.356;8.812;2023-12-20T07:16:15;3.83;;;3.40;;
33836;SDS011;20140;49.356;8.812;2023-12-20T07:18:40;4.50;;;3.80;;
33836;SDS011;20140;49.356;8.812;2023-12-20T07:21:06;4.95;;;4.32;;
33836;SDS011;20140;49.356;8.812;2023-12-20T07:23:33;5.03;;;3.95;;
33836;SDS011;20140;49.356;8.812;2023-12-20T07:25:58;4.73;;;3.47;;
33836;SDS011;20140;49.356;8.812;2023-12-20T07:28:24;3.90;;;3.47;;
33836;SDS011;20140;49.356;8.812;2023-12-20T07:30:49;4.13;;;3.10;;
33836;SDS011;20140;49.356;8.812;2023-12-20T07:33:15;4.30;;;3.50;;
33836;SDS011;20140;49.356;8.812;2023-12-20T07:35:41;4.50;;;3.60;;
33836;SDS011;20140;49.356;8.812;2023-12-20T07:38:06;4.45;;;3.70;;
33836;SDS011;20140;49.356;8.812;2023-12-20T07:40:32;5.13;;;3.67;;
33836;SDS011;20140;49.356;8.812;2023-12-20T07:42:57;4.95;;;3.72;;
33836;SDS011;20140;49.356;8.812;2023-12-20T07:45:23;3.88;;;2.70;;
33836;SDS011;20140;49.356;8.812;2023-12-20T07:47:49;4.63;;;3.90;;
33836;SDS011;20140;49.356;8.812;2023-12-20T07:50:15;4.75;;;3.40;;
33836;SDS011;20140;49.356;8.812;2023-12-20T07:52:40;4.65;;;3.95;;
33836;SDS011;20140;49.356;8.812;2023-12-20T07:55:06;4.57;;;3.80;;
33836;SDS011;20140;49.356;8.812;2023-12-20T07:57:32;5.18;;;4.15;;
33836;SDS011;20140;49.356;8.812;2023-12-20T07:59:58;5.53;;;4.23;;
33836;SDS011;20140;49.356;8.812;2023-12-20T08:02:23;5.13;;;4.10;;
33836;SDS011;20140;49.356;8.812;2023-12-20T08:04:49;5.13;;;4.22;;
33836;SDS011;20140;49.356;8.812;2023-12-20T08:07:14;6.00;;;4.03;;
33836;SDS011;20140;49.356;8.812;2023-12-20T08:09:40;5.75;;;4.68;;
33836;SDS011;20140;49.356;8.812;2023-12-20T08:12:05;7.50;;;4.60;;
33836;SDS011;20140;49.356;8.812;2023-12-20T08:14:34;4.97;;;4.13;;
33836;SDS011;20140;49.356;8.812;2023-12-20T08:17:00;6.70;;;5.43;;
33836;SDS011;20140;49.356;8.812;2023-12-20T08:19:25;5.00;;;4.30;;
33836;SDS011;20140;49.356;8.812;2023-12-20T08:21:51;7.63;;;5.13;;
33836;SDS011;20140;49.356;8.812;2023-12-20T08:24:16;4.90;;;4.20;;
33836;SDS011;20140;49.356;8.812;2023-12-20T08:26:42;4.70;;;3.87;;
33836;SDS011;20140;49.356;8.812;2023-12-20T08:29:07;6.38;;;4.50;;
33836;SDS011;20140;49.356;8.812;2023-12-20T08:31:33;5.40;;;4.40;;
33836;SDS011;20140;49.356;8.812;2023-12-20T08:33:59;4.57;;;3.83;;
33836;SDS011;20140;49.356;8.812;2023-12-20T08:36:24;4.53;;;3.90;;
33836;SDS011;20140;49.356;8.812;2023-12-20T08:38:50;5.70;;;3.85;;
33836;SDS011;20140;49.356;8.812;2023-12-20T08:41:16;5.32;;;3.80;;
33836;SDS011;20140;49.356;8.812;2023-12-20T08:43:42;5.45;;;4.40;;
33836;SDS011;20140;49.356;8.812;2023-12-20T08:46:08;4.20;;;3.53;;
33836;SDS011;20140;49.356;8.812;2023-12-20T08:48:36;3.42;;;2.70;;
33836;SDS011;20140;49.356;8.812;2023-12-20T08:51:02;4.60;;;3.40;;
33836;SDS011;20140;49.356;8.812;2023-12-20T08:53:28;3.50;;;2.97;;
33836;SDS011;20140;49.356;8.812;2023-12-20T08:55:54;5.10;;;3.67;;
33836;SDS011;20140;49.356;8.812;2023-12-20T08:58:19;4.17;;;2.73;;
33836;SDS011;20140;49.356;8.812;2023-12-20T09:00:45;2.10;;;1.52;;
33836;SDS011;20140;49.356;8.812;2023-12-20T09:03:10;4.82;;;2.75;;
33836;SDS011;20140;49.356;8.812;2023-12-20T09:05:36;4.60;;;2.30;;
33836;SDS011;20140;49.356;8.812;2023-12-20T09:08:01;3.23;;;2.53;;
33836;SDS011;20140;49.356;8.812;2023-12-20T09:10:27;2.57;;;2.23;;
33836;SDS011;20140;49.356;8.812;2023-12-20T09:12:53;2.30;;;2.03;;
33836;SDS011;20140;49.356;8.812;2023-12-20T09:15:25;2.55;;;2.15;;
33836;SDS011;20140;49.356;8.812;2023-12-20T09:17:51;1.20;;;1.10;;
33836;SDS011;20140;49.356;8.812;2023-12-20T09:20:17;4.28;;;2.65;;
33836;SDS011;20140;49.356;8.812;2023-12-20T09:22:43;2.00;;;1.77;;
33836;SDS011;20140;49.356;8.812;2023-12-20T09:25:12;2.97;;;2.07;;
33836;SDS011;20140;49.356;8.812;2023-12-20T09:27:39;2.88;;;1.63;;
33836;SDS011;20140;49.356;8.812;2023-12-20T09:30:05;3.42;;;1.58;;
33836;SDS011;20140;49.356;8.812;2023-12-20T09:32:31;1.30;;;1.20;;
33836;SDS011;20140;49.356;8.812;2023-12-20T09:34:57;1.07;;;1.03;;
33836;SDS011;20140;49.356;8.812;2023-12-20T09:37:22;2.20;;;1.33;;
33836;SDS011;20140;49.356;8.812;2023-12-20T09:39:50;1.52;;;1.17;;
33836;SDS011;20140;49.356;8.812;2023-12-20T09:42:17;2.28;;;1.45;;
33836;SDS011;20140;49.356;8.812;2023-12-20T09:44:53;1.70;;;1.17;;
33836;SDS011;20140;49.356;8.812;2023-12-20T09:47:19;0.70;;;0.70;;
33836;SDS011;20140;49.356;8.812;2023-12-20T09:49:48;2.22;;;1.20;;
33836;SDS011;20140;49.356;8.812;2023-12-20T09:52:15;2.38;;;1.20;;
33836;SDS011;20140;49.356;8.812;2023-12-20T09:54:41;1.80;;;1.00;;
33836;SDS011;20140;49.356;8.812;2023-12-20T09:57:09;3.45;;;1.30;;
33836;SDS011;20140;49.356;8.812;2023-12-20T09:59:35;2.80;;;1.35;;
33836;SDS011;20140;49.356;8.812;2023-12-20T10:02:00;1.73;;;1.15;;
33836;SDS011;20140;49.356;8.812;2023-12-20T10:04:29;1.83;;;0.95;;
33836;SDS011;20140;49.356;8.812;2023-12-20T10:07:01;6.05;;;1.33;;
33836;SDS011;20140;49.356;8.812;2023-12-20T10:09:28;1.58;;;1.25;;
33836;SDS011;20140;49.356;8.812;2023-12-20T10:11:56;0.70;;;0.68;;
33836;SDS011;20140;49.356;8.812;2023-12-20T10:14:23;2.30;;;0.97;;
33836;SDS011;20140;49.356;8.812;2023-12-20T10:16:49;1.50;;;0.95;;
33836;SDS011;20140;49.356;8.812;2023-12-20T10:19:16;2.73;;;1.13;;
33836;SDS011;20140;49.356;8.812;2023-12-20T10:21:42;3.00;;;1.17;;
33836;SDS011;20140;49.356;8.812;2023-12-20T10:24:08;1.40;;;1.10;;
33836;SDS011;20140;49.356;8.812;2023-12-20T10:26:33;4.00;;;0.83;;
33836;SDS011;20140;49.356;8.812;2023-12-20T10:28:59;1.02;;;0.82;;
33836;SDS011;20140;49.356;8.812;2023-12-20T10:31:27;2.13;;;1.50;;
33836;SDS011;20140;49.356;8.812;2023-12-20T10:33:53;3.95;;;1.02;;
33836;SDS011;20140;49.356;8.812;2023-12-20T10:36:20;1.70;;;0.90;;
33836;SDS011;20140;49.356;8.812;2023-12-20T10:38:48;1.00;;;0.70;;
33836;SDS011;20140;49.356;8.812;2023-12-20T10:41:17;1.73;;;0.80;;
33836;SDS011;20140;49.356;8.812;2023-12-20T10:43:49;3.03;;;1.05;;
33836;SDS011;20140;49.356;8.812;2023-12-20T10:46:16;1.88;;;1.10;;
33836;SDS011;20140;49.356;8.812;2023-12-20T10:48:44;5.07;;;0.90;;
33836;SDS011;20140;49.356;8.812;2023-12-20T10:51:11;2.05;;;0.60;;
33836;SDS011;20140;49.356;8.812;2023-12-20T10:53:38;0.90;;;0.70;;
33836;SDS011;20140;49.356;8.812;2023-12-20T10:56:05;3.13;;;1.00;;
33836;SDS011;20140;49.356;8.812;2023-12-20T10:58:34;2.03;;;1.05;;
33836;SDS011;20140;49.356;8.812;2023-12-20T11:01:04;3.05;;;1.17;;
33836;SDS011;20140;49.356;8.812;2023-12-20T11:03:32;2.03;;;0.70;;
33836;SDS011;20140;49.356;8.812;2023-12-20T11:06:03;1.77;;;1.25;;
33836;SDS011;20140;49.356;8.812;2023-12-20T11:08:53;0.82;;;0.52;;
33836;SDS011;20140;49.356;8.812;2023-12-20T11:14:25;0.82;;;0.80;;
33836;SDS011;20140;49.356;8.812;2023-12-20T11:19:35;3.03;;;1.17;;
33836;SDS011;20140;49.356;8.812;2023-12-20T11:22:03;3.38;;;1.20;;
33836;SDS011;20140;49.356;8.812;2023-12-20T11:24:30;2.65;;;0.80;;
33836;SDS011;20140;49.356;8.812;2023-12-20T11:26:57;1.60;;;0.73;;
33836;SDS011;20140;49.356;8.812;2023-12-20T11:29:32;2.42;;;0.90;;
33836;SDS011;20140;49.356;8.812;2023-12-20T11:34:58;1.85;;;0.75;;
33836;SDS011;20140;49.356;8.812;2023-12-20T11:37:29;2.10;;;1.13;;
33836;SDS011;20140;49.356;8.812;2023-12-20T11:40:00;2.05;;;0.98;;
33836;SDS011;20140;49.356;8.812;2023-12-20T11:42:49;2.30;;;1.23;;
33836;SDS011;20140;49.356;8.812;2023-12-20T11:45:16;4.78;;;0.68;;
33836;SDS011;20140;49.356;8.812;2023-12-20T11:47:49;1.42;;;0.98;;
33836;SDS011;20140;49.356;8.812;2023-12-20T11:50:16;2.30;;;1.17;;
33836;SDS011;20140;49.356;8.812;2023-12-20T11:52:42;1.50;;;0.63;;
33836;SDS011;20140;49.356;8.812;2023-12-20T11:55:08;4.10;;;0.90;;
33836;SDS011;20140;49.356;8.812;2023-12-20T11:57:33;4.10;;;1.40;;
33836;SDS011;20140;49.356;8.812;2023-12-20T12:00:00;3.88;;;1.15;;
33836;SDS011;20140;49.356;8.812;2023-12-20T12:02:27;2.55;;;0.85;;
33836;SDS011;20140;49.356;8.812;2023-12-20T12:04:52;6.80;;;1.50;;
33836;SDS011;20140;49.356;8.812;2023-12-20T12:07:18;3.73;;;1.27;;
33836;SDS011;20140;49.356;8.812;2023-12-20T12:09:43;1.93;;;1.40;;
33836;SDS011;20140;49.356;8.812;2023-12-20T12:12:10;2.72;;;1.20;;
33836;SDS011;20140;49.356;8.812;2023-12-20T12:14:37;4.78;;;1.90;;
33836;SDS011;20140;49.356;8.812;2023-12-20T12:17:03;2.60;;;1.23;;
33836;SDS011;20140;49.356;8.812;2023-12-20T12:19:29;5.82;;;2.42;;
33836;SDS011;20140;49.356;8.812;2023-12-20T12:24:38;4.80;;;2.75;;
33836;SDS011;20140;49.356;8.812;2023-12-20T12:27:05;1.52;;;0.77;;
33836;SDS011;20140;49.356;8.812;2023-12-20T12:29:31;5.28;;;2.30;;
33836;SDS011;20140;49.356;8.812;2023-12-20T12:31:57;2.30;;;2.00;;
33836;SDS011;20140;49.356;8.812;2023-12-20T12:34:23;4.07;;;1.90;;
33836;SDS011;20140;49.356;8.812;2023-12-20T12:36:49;3.58;;;1.65;;
33836;SDS011;20140;49.356;8.812;2023-12-20T12:39:14;1.92;;;1.33;;
33836;SDS011;20140;49.356;8.812;2023-12-20T12:41:42;3.78;;;1.70;;
33836;SDS011;20140;49.356;8.812;2023-12-20T12:44:07;3.95;;;1.35;;
33836;SDS011;20140;49.356;8.812;2023-12-20T12:46:33;2.10;;;1.70;;
33836;SDS011;20140;49.356;8.812;2023-12-20T12:48:59;3.30;;;1.42;;
33836;SDS011;20140;49.356;8.812;2023-12-20T12:51:24;1.75;;;1.48;;
33836;SDS011;20140;49.356;8.812;2023-12-20T12:53:50;2.65;;;1.90;;
33836;SDS011;20140;49.356;8.812;2023-12-20T12:56:16;4.73;;;1.47;;
33836;SDS011;20140;49.356;8.812;2023-12-20T12:58:41;3.20;;;1.17;;
33836;SDS011;20140;49.356;8.812;2023-12-20T13:01:07;4.18;;;1.33;;
33836;SDS011;20140;49.356;8.812;2023-12-20T13:03:33;11.00;;;1.90;;
33836;SDS011;20140;49.356;8.812;2023-12-20T13:05:59;1.73;;;1.02;;
33836;SDS011;20140;49.356;8.812;2023-12-20T13:08:25;4.15;;;1.55;;
33836;SDS011;20140;49.356;8.812;2023-12-20T13:10:50;3.75;;;1.13;;
33836;SDS011;20140;49.356;8.812;2023-12-20T13:13:16;2.65;;;1.30;;
33836;SDS011;20140;49.356;8.812;2023-12-20T13:15:41;3.50;;;1.30;;
33836;SDS011;20140;49.356;8.812;2023-12-20T13:18:07;3.83;;;1.10;;
33836;SDS011;20140;49.356;8.812;2023-12-20T13:20:32;2.20;;;1.67;;
33836;SDS011;20140;49.356;8.812;2023-12-20T13:22:58;1.30;;;1.20;;
33836;SDS011;20140;49.356;8.812;2023-12-20T13:25:24;3.10;;;1.60;;
33836;SDS011;20140;49.356;8.812;2023-12-20T13:27:50;5.17;;;1.70;;
33836;SDS011;20140;49.356;8.812;2023-12-20T13:30:16;1.40;;;1.17;;
33836;SDS011;20140;49.356;8.812;2023-12-20T13:32:42;2.50;;;1.60;;
33836;SDS011;20140;49.356;8.812;2023-12-20T13:35:07;6.43;;;1.80;;
33836;SDS011;20140;49.356;8.812;2023-12-20T13:37:33;3.70;;;1.40;;
33836;SDS011;20140;49.356;8.812;2023-12-20T13:40:01;1.65;;;1.05;;
33836;SDS011;20140;49.356;8.812;2023-12-20T13:42:29;3.72;;;1.80;;
33836;SDS011;20140;49.356;8.812;2023-12-20T13:44:54;2.42;;;1.73;;
33836;SDS011;20140;49.356;8.812;2023-12-20T13:47:20;5.55;;;2.80;;
33836;SDS011;20140;49.356;8.812;2023-12-20T13:49:46;3.35;;;2.08;;
33836;SDS011;20140;49.356;8.812;2023-12-20T13:52:11;6.03;;;2.13;;
33836;SDS011;20140;49.356;8.812;2023-12-20T13:54:37;4.00;;;1.70;;
33836;SDS011;20140;49.356;8.812;2023-12-20T13:57:03;4.73;;;1.90;;
33836;SDS011;20140;49.356;8.812;2023-12-20T13:59:28;6.10;;;1.90;;
33836;SDS011;20140;49.356;8.812;2023-12-20T14:01:54;7.87;;;1.67;;
33836;SDS011;20140;49.356;8.812;2023-12-20T14:04:20;2.20;;;1.40;;
33836;SDS011;20140;49.356;8.812;2023-12-20T14:06:46;3.40;;;2.00;;
33836;SDS011;20140;49.356;8.812;2023-12-20T14:09:12;3.13;;;1.67;;
33836;SDS011;20140;49.356;8.812;2023-12-20T14:11:38;1.90;;;1.63;;
33836;SDS011;20140;49.356;8.812;2023-12-20T14:14:06;4.88;;;2.88;;
33836;SDS011;20140;49.356;8.812;2023-12-20T14:16:32;6.80;;;2.17;;
33836;SDS011;20140;49.356;8.812;2023-12-20T14:18:58;3.95;;;1.48;;
33836;SDS011;20140;49.356;8.812;2023-12-20T14:21:24;2.90;;;1.35;;
33836;SDS011;20140;49.356;8.812;2023-12-20T14:23:50;2.40;;;1.73;;
33836;SDS011;20140;49.356;8.812;2023-12-20T14:26:16;6.40;;;1.98;;
33836;SDS011;20140;49.356;8.812;2023-12-20T14:28:42;4.20;;;1.33;;
33836;SDS011;20140;49.356;8.812;2023-12-20T14:31:08;1.85;;;0.93;;
33836;SDS011;20140;49.356;8.812;2023-12-20T14:33:35;3.43;;;1.47;;
33836;SDS011;20140;49.356;8.812;2023-12-20T14:36:02;3.28;;;1.15;;
33836;SDS011;20140;49.356;8.812;2023-12-20T14:38:30;5.57;;;1.60;;
33836;SDS011;20140;49.356;8.812;2023-12-20T14:40:56;3.78;;;1.50;;
33836;SDS011;20140;49.356;8.812;2023-12-20T14:43:21;2.43;;;0.80;;
33836;SDS011;20140;49.356;8.812;2023-12-20T14:45:47;2.60;;;0.73;;
33836;SDS011;20140;49.356;8.812;2023-12-20T14:48:13;3.33;;;0.90;;
33836;SDS011;20140;49.356;8.812;2023-12-20T14:50:38;5.77;;;1.50;;
33836;SDS011;20140;49.356;8.812;2023-12-20T14:53:05;4.90;;;1.20;;